createdAt,value
2017-09-24T00:02:03.897Z,99.90
2017-09-24T00:04:31.562Z,99.90
2017-09-24T00:06:59.115Z,99.90
2017-09-24T00:09:26.646Z,99.90
2017-09-24T00:11:54.234Z,99.90
2017-09-24T00:14:21.944Z,99.90
2017-09-24T00:16:49.574Z,99.90
2017-09-24T00:19:17.212Z,99.90
2017-09-24T00:21:44.736Z,99.90
2017-09-24T00:24:13.028Z,99.90
2017-09-24T00:26:40.579Z,99.90
2017-09-24T00:29:08.876Z,99.90
2017-09-24T00:31:36.409Z,99.90
2017-09-24T00:34:04.937Z,99.90
2017-09-24T00:36:34.948Z,99.90
2017-09-24T00:39:02.589Z,99.90
2017-09-24T00:41:30.141Z,99.90
2017-09-24T00:43:58.450Z,99.90
2017-09-24T00:46:26.013Z,99.90
2017-09-24T00:48:53.618Z,99.90
2017-09-24T00:51:21.956Z,99.90
2017-09-24T00:53:49.517Z,99.90
2017-09-24T00:56:17.065Z,99.90
2017-09-24T00:58:44.623Z,99.90
2017-09-24T01:01:12.153Z,99.90
2017-09-24T01:03:40.456Z,99.90
2017-09-24T01:06:08.100Z,99.90
2017-09-24T01:08:35.632Z,99.90
2017-09-24T01:11:03.956Z,99.90
2017-09-24T01:13:31.476Z,99.90
2017-09-24T01:15:59.779Z,99.90
2017-09-24T01:18:27.326Z,99.90
2017-09-24T01:20:55.629Z,99.90
2017-09-24T01:23:23.186Z,99.90
2017-09-24T01:25:50.753Z,99.90
2017-09-24T01:28:19.238Z,99.90
2017-09-24T01:30:46.767Z,99.90
2017-09-24T01:33:14.312Z,99.90
2017-09-24T01:35:42.601Z,99.90
2017-09-24T01:38:10.894Z,99.90
2017-09-24T01:40:38.438Z,99.90
2017-09-24T01:43:07.029Z,99.90
2017-09-24T01:45:34.560Z,99.90
2017-09-24T01:48:02.989Z,99.90
2017-09-24T01:50:30.545Z,99.90
2017-09-24T01:52:58.069Z,99.90
2017-09-24T01:55:26.376Z,99.90
2017-09-24T01:57:53.909Z,99.90
2017-09-24T02:00:22.221Z,99.90
2017-09-24T02:02:49.762Z,99.90
2017-09-24T02:05:17.288Z,99.90
2017-09-24T02:07:45.143Z,99.90
2017-09-24T02:10:12.768Z,99.90
2017-09-24T02:12:40.292Z,99.90
2017-09-24T02:15:08.583Z,99.90
2017-09-24T02:17:36.125Z,99.90
2017-09-24T02:20:04.425Z,99.90
2017-09-24T02:22:32.004Z,99.90
2017-09-24T02:24:59.561Z,99.90
2017-09-24T02:27:27.088Z,99.90
2017-09-24T02:29:55.717Z,99.90
2017-09-24T02:32:23.365Z,99.90
2017-09-24T02:34:50.893Z,99.90
2017-09-24T02:37:19.184Z,99.90
2017-09-24T02:39:46.775Z,99.90
2017-09-24T02:42:14.327Z,99.90
2017-09-24T02:44:41.858Z,99.90
2017-09-24T02:47:09.406Z,99.90
2017-09-24T02:49:38.624Z,99.90
2017-09-24T02:52:06.157Z,99.90
2017-09-24T02:54:34.477Z,99.90
2017-09-24T02:57:02.010Z,99.90
2017-09-24T02:59:29.542Z,99.90
2017-09-24T03:01:57.878Z,99.90
2017-09-24T03:04:25.415Z,99.90
2017-09-24T03:06:53.002Z,99.90
2017-09-24T03:09:20.545Z,99.90
2017-09-24T03:11:48.077Z,99.90
2017-09-24T03:14:16.398Z,99.90
2017-09-24T03:16:43.950Z,99.90
2017-09-24T03:19:11.509Z,99.90
2017-09-24T03:21:40.074Z,99.90
2017-09-24T03:24:07.655Z,99.90
2017-09-24T03:26:35.181Z,99.90
2017-09-24T03:29:03.492Z,99.90
2017-09-24T03:31:31.028Z,99.90
2017-09-24T03:33:58.580Z,99.90
2017-09-24T03:36:26.124Z,99.90
2017-09-24T03:38:54.429Z,99.90
2017-09-24T03:41:22.005Z,99.90
2017-09-24T03:43:49.529Z,99.90
2017-09-24T03:46:17.841Z,99.90
2017-09-24T03:48:45.364Z,99.90
2017-09-24T03:51:13.682Z,99.90
2017-09-24T03:53:41.231Z,99.90
2017-09-24T03:56:08.898Z,99.90
2017-09-24T03:58:37.338Z,99.90
2017-09-24T04:01:05.662Z,99.90
2017-09-24T04:03:33.194Z,99.90
2017-09-24T04:06:00.781Z,99.90
2017-09-24T04:08:28.446Z,99.90
2017-09-24T04:10:55.975Z,99.90
2017-09-24T04:13:24.262Z,99.90
2017-09-24T04:15:51.805Z,99.90
2017-09-24T04:18:20.097Z,99.90
2017-09-24T04:20:47.626Z,99.90
2017-09-24T04:23:15.249Z,99.90
2017-09-24T04:25:42.765Z,99.90
2017-09-24T04:28:12.073Z,99.90
2017-09-24T04:30:39.618Z,99.90
2017-09-24T04:33:07.900Z,99.90
2017-09-24T04:35:36.209Z,99.90
2017-09-24T04:38:03.745Z,99.90
2017-09-24T04:40:31.273Z,99.90
2017-09-24T04:42:59.570Z,99.90
2017-09-24T04:45:27.880Z,99.90
2017-09-24T04:47:55.438Z,99.90
2017-09-24T04:50:22.960Z,99.90
2017-09-24T04:52:51.267Z,99.90
2017-09-24T04:55:18.836Z,99.90
2017-09-24T04:57:46.404Z,99.90
2017-09-24T05:00:13.958Z,99.90
2017-09-24T05:02:42.439Z,99.90
2017-09-24T05:05:09.976Z,99.90
2017-09-24T05:07:37.519Z,99.90
2017-09-24T05:10:05.836Z,99.90
2017-09-24T05:12:33.373Z,99.90
2017-09-24T05:15:00.930Z,99.90
2017-09-24T05:17:28.514Z,99.90
2017-09-24T05:19:56.053Z,99.90
2017-09-24T05:22:23.634Z,99.90
2017-09-24T05:24:51.206Z,99.90
2017-09-24T05:27:19.349Z,99.90
2017-09-24T05:29:46.897Z,99.90
2017-09-24T05:32:15.186Z,99.90
2017-09-24T05:34:43.628Z,99.90
2017-09-24T05:37:11.181Z,99.90
2017-09-24T05:39:38.713Z,99.90
2017-09-24T05:42:06.236Z,99.90
2017-09-24T05:44:34.573Z,99.90
2017-09-24T05:47:02.101Z,99.90
2017-09-24T05:49:29.657Z,99.90
2017-09-24T05:51:57.203Z,99.90
2017-09-24T05:54:24.812Z,99.90
2017-09-24T05:56:52.338Z,99.90
2017-09-24T05:59:19.889Z,99.90
2017-09-24T06:01:47.422Z,99.90
2017-09-24T06:04:15.798Z,99.90
2017-09-24T06:06:45.042Z,99.90
2017-09-24T06:09:12.582Z,99.90
2017-09-24T06:11:40.110Z,99.90
2017-09-24T06:14:08.422Z,99.90
2017-09-24T06:16:35.958Z,99.90
2017-09-24T06:19:04.278Z,99.90
2017-09-24T06:21:31.834Z,99.90
2017-09-24T06:23:59.361Z,99.90
2017-09-24T06:26:27.552Z,99.90
2017-09-24T06:28:55.441Z,99.90
2017-09-24T06:31:23.028Z,99.90
2017-09-24T06:33:51.489Z,99.90
2017-09-24T06:36:19.056Z,99.90
2017-09-24T06:38:46.581Z,99.90
2017-09-24T06:41:14.149Z,99.90
2017-09-24T06:43:41.688Z,99.90
2017-09-24T06:46:10.587Z,99.90
2017-09-24T06:48:38.265Z,99.90
2017-09-24T06:51:05.819Z,99.90
2017-09-24T06:53:33.351Z,99.90
2017-09-24T06:56:01.646Z,99.90
2017-09-24T06:58:29.190Z,99.90
2017-09-24T07:00:57.492Z,99.90
2017-09-24T07:03:25.026Z,99.90
2017-09-24T07:05:53.458Z,99.90
2017-09-24T07:08:20.994Z,99.90
2017-09-24T07:10:48.522Z,99.90
2017-09-24T07:13:17.654Z,99.90
2017-09-24T07:15:45.184Z,99.90
2017-09-24T07:18:13.598Z,99.90
2017-09-24T07:20:41.150Z,99.90
2017-09-24T07:23:08.705Z,99.90
2017-09-24T07:25:36.269Z,99.90
2017-09-24T07:28:03.824Z,99.90
2017-09-24T07:30:31.355Z,99.90
2017-09-24T07:32:59.647Z,99.90
2017-09-24T07:35:27.197Z,99.90
2017-09-24T07:37:55.495Z,99.90
2017-09-24T07:40:23.013Z,99.90
2017-09-24T07:42:51.320Z,99.90
2017-09-24T07:45:18.844Z,99.90
2017-09-24T07:47:46.387Z,99.90
2017-09-24T07:50:14.150Z,99.90
2017-09-24T07:52:41.678Z,99.90
2017-09-24T07:55:09.242Z,99.90
2017-09-24T07:57:36.853Z,99.90
2017-09-24T08:00:04.367Z,99.90
2017-09-24T08:02:31.921Z,99.90
2017-09-24T08:04:59.467Z,99.90
2017-09-24T08:07:26.994Z,99.90
2017-09-24T08:09:55.286Z,99.90
2017-09-24T08:12:23.630Z,99.90
2017-09-24T08:14:52.669Z,99.90
2017-09-24T08:17:20.250Z,99.90
2017-09-24T08:19:47.817Z,99.90
2017-09-24T08:22:15.437Z,99.90
2017-09-24T08:24:43.743Z,99.90
2017-09-24T08:27:11.285Z,99.90
2017-09-24T08:29:38.864Z,99.90
2017-09-24T08:32:06.389Z,99.90
2017-09-24T08:34:34.817Z,99.90
2017-09-24T08:37:02.413Z,99.90
2017-09-24T08:39:30.032Z,99.90
2017-09-24T08:41:57.585Z,99.90
2017-09-24T08:44:25.116Z,99.90
2017-09-24T08:46:53.414Z,99.90
2017-09-24T08:49:20.961Z,99.90
2017-09-24T08:51:48.551Z,99.90
2017-09-24T08:54:16.186Z,99.90
2017-09-24T08:56:43.765Z,99.90
2017-09-24T08:59:11.325Z,99.90
2017-09-24T09:01:38.882Z,99.90
2017-09-24T09:04:06.440Z,99.90
2017-09-24T09:06:33.974Z,99.90
2017-09-24T09:09:02.268Z,99.90
2017-09-24T09:11:29.841Z,99.90
2017-09-24T09:13:57.369Z,99.90
2017-09-24T09:16:25.677Z,99.90
2017-09-24T09:18:53.226Z,99.90
2017-09-24T09:21:49.058Z,99.90
2017-09-24T09:24:16.669Z,99.90
2017-09-24T09:26:44.210Z,99.90
2017-09-24T09:29:12.601Z,99.90
2017-09-24T09:31:40.138Z,99.90
2017-09-24T09:34:19.374Z,99.90
2017-09-24T09:36:46.953Z,99.90
2017-09-24T09:39:14.585Z,99.90
2017-09-24T09:41:42.109Z,99.90
2017-09-24T09:44:21.535Z,99.90
2017-09-24T09:49:50.957Z,99.90
2017-09-24T09:52:19.278Z,99.90
2017-09-24T09:54:46.837Z,99.90
2017-09-24T09:57:14.392Z,99.90
2017-09-24T09:59:41.918Z,99.90
2017-09-24T10:02:10.211Z,99.90
2017-09-24T10:04:37.888Z,99.90
2017-09-24T10:10:10.285Z,99.90
2017-09-24T10:12:37.811Z,99.90
2017-09-24T10:15:06.088Z,99.10
2017-09-24T10:17:34.398Z,99.80
2017-09-24T10:20:01.930Z,99.80
2017-09-24T10:22:29.522Z,99.60
2017-09-24T10:24:57.082Z,99.90
2017-09-24T10:27:24.602Z,99.90
2017-09-24T10:32:52.813Z,94.90
2017-09-24T10:35:20.384Z,94.80
2017-09-24T10:37:47.895Z,92.00
2017-09-24T10:40:15.425Z,87.40
2017-09-24T10:42:42.971Z,84.40
2017-09-24T10:45:10.492Z,73.90
2017-09-24T10:47:38.808Z,61.30
2017-09-24T10:50:06.370Z,61.30
2017-09-24T10:52:33.930Z,58.90
2017-09-24T10:55:01.451Z,56.60
2017-09-24T10:57:29.860Z,51.40
2017-09-24T10:59:57.419Z,51.40
2017-09-24T11:02:26.318Z,50.30
2017-09-24T11:04:53.861Z,50.30
2017-09-24T11:07:21.390Z,49.80
2017-09-24T11:09:49.742Z,48.80
2017-09-24T11:12:17.314Z,48.70
2017-09-24T11:14:45.040Z,48.10
2017-09-24T11:17:12.570Z,47.20
2017-09-24T11:19:40.159Z,47.00
2017-09-24T11:22:07.719Z,48.40
2017-09-24T11:24:35.240Z,48.10
2017-09-24T11:27:03.557Z,45.40
2017-09-24T11:29:31.081Z,45.30
2017-09-24T11:31:59.361Z,43.80
2017-09-24T11:34:27.661Z,42.30
2017-09-24T11:36:55.183Z,42.30
2017-09-24T11:39:23.499Z,41.10
2017-09-24T11:41:51.056Z,41.10
2017-09-24T11:44:18.620Z,40.40
2017-09-24T11:46:46.153Z,40.50
2017-09-24T11:49:14.559Z,38.90
2017-09-24T11:51:42.122Z,38.30
2017-09-24T11:54:09.641Z,38.20
2017-09-24T11:56:37.947Z,37.20
2017-09-24T11:59:05.514Z,37.20
2017-09-24T12:01:33.072Z,34.70
2017-09-24T12:04:00.621Z,34.70
2017-09-24T12:06:28.154Z,35.60
2017-09-24T12:08:56.446Z,34.00
2017-09-24T12:11:23.985Z,33.90
2017-09-24T12:13:52.288Z,33.80
2017-09-24T12:16:19.974Z,33.80
2017-09-24T12:18:47.529Z,33.20
2017-09-24T12:21:15.940Z,33.10
2017-09-24T12:23:43.470Z,32.90
2017-09-24T12:26:11.032Z,32.00
2017-09-24T12:28:38.690Z,30.30
2017-09-24T12:31:06.228Z,30.90
2017-09-24T12:33:33.809Z,33.70
2017-09-24T12:36:01.370Z,34.80
2017-09-24T12:38:29.665Z,35.80
2017-09-24T12:40:57.205Z,35.50
2017-09-24T12:43:24.729Z,35.70
2017-09-24T12:45:53.041Z,32.90
2017-09-24T12:48:20.590Z,32.80
2017-09-24T12:50:48.113Z,33.20
2017-09-24T12:53:16.401Z,33.90
2017-09-24T12:55:44.703Z,31.60
2017-09-24T12:58:12.221Z,31.50
2017-09-24T13:00:39.841Z,31.70
2017-09-24T13:03:07.383Z,30.70
2017-09-24T13:05:34.901Z,30.80
2017-09-24T13:08:02.521Z,30.60
2017-09-24T13:10:31.013Z,31.40
2017-09-24T13:12:58.585Z,31.30
2017-09-24T13:15:26.112Z,29.90
2017-09-24T13:17:53.657Z,31.00
2017-09-24T13:20:21.950Z,30.20
2017-09-24T13:22:49.514Z,30.10
2017-09-24T13:25:17.078Z,30.70
2017-09-24T13:27:44.634Z,29.90
2017-09-24T13:30:12.190Z,30.30
2017-09-24T13:32:39.732Z,30.70
2017-09-24T13:35:07.309Z,30.10
2017-09-24T13:37:34.872Z,30.50
2017-09-24T13:40:02.425Z,29.70
2017-09-24T13:42:29.987Z,30.40
2017-09-24T13:44:57.517Z,30.70
2017-09-24T13:47:25.938Z,30.60
2017-09-24T13:49:53.457Z,30.50
2017-09-24T13:52:21.762Z,31.20
2017-09-24T13:54:49.309Z,31.10
2017-09-24T13:57:16.838Z,30.40
2017-09-24T13:59:44.362Z,29.80
2017-09-24T14:02:12.006Z,32.00
2017-09-24T14:04:39.534Z,32.90
2017-09-24T14:07:07.841Z,33.30
2017-09-24T14:09:35.418Z,33.30
2017-09-24T14:12:04.463Z,35.80
2017-09-24T14:14:33.665Z,38.00
2017-09-24T14:17:01.977Z,39.80
2017-09-24T14:19:29.506Z,39.80
2017-09-24T14:21:57.096Z,40.90
2017-09-24T14:24:24.654Z,40.70
2017-09-24T14:26:52.215Z,39.40
2017-09-24T14:29:19.742Z,38.20
2017-09-24T14:31:48.051Z,36.50
2017-09-24T14:34:15.609Z,36.50
2017-09-24T14:36:43.172Z,35.50
2017-09-24T14:39:10.730Z,35.50
2017-09-24T14:41:38.290Z,34.80
2017-09-24T14:44:05.818Z,34.70
2017-09-24T14:46:34.230Z,34.00
2017-09-24T14:49:01.761Z,34.00
2017-09-24T14:51:29.283Z,35.50
2017-09-24T14:53:56.836Z,36.50
2017-09-24T14:56:24.361Z,37.20
2017-09-24T14:58:52.055Z,38.40
2017-09-24T15:01:19.693Z,39.60
2017-09-24T15:03:47.250Z,40.70
2017-09-24T15:06:14.769Z,41.80
2017-09-24T15:08:43.202Z,43.70
2017-09-24T15:11:10.716Z,43.50
2017-09-24T15:13:39.008Z,45.20
2017-09-24T15:16:06.929Z,45.20
2017-09-24T15:18:34.557Z,45.40
2017-09-24T15:21:02.077Z,45.80
2017-09-24T15:23:30.377Z,48.20
2017-09-24T15:25:57.903Z,48.10
2017-09-24T15:28:26.188Z,49.60
2017-09-24T15:30:54.492Z,50.10
2017-09-24T15:33:22.063Z,50.00
2017-09-24T15:35:49.622Z,50.80
2017-09-24T15:38:17.162Z,51.30
2017-09-24T15:40:44.684Z,51.90
2017-09-24T15:43:12.314Z,52.60
2017-09-24T15:45:39.854Z,52.60
2017-09-24T15:48:08.343Z,53.00
2017-09-24T15:50:35.865Z,53.40
2017-09-24T15:53:04.178Z,53.30
2017-09-24T15:55:31.701Z,53.20
2017-09-24T15:57:59.995Z,54.40
2017-09-24T16:00:27.545Z,54.30
2017-09-24T16:02:55.825Z,55.60
2017-09-24T16:05:24.145Z,56.40
2017-09-24T16:07:51.693Z,56.40
2017-09-24T16:10:19.251Z,57.30
2017-09-24T16:12:46.773Z,58.20
2017-09-24T16:15:15.073Z,59.20
2017-09-24T16:17:42.599Z,59.20
2017-09-24T16:20:10.894Z,61.40
2017-09-24T16:22:40.220Z,63.10
2017-09-24T16:25:07.882Z,63.10
2017-09-24T16:27:35.410Z,65.60
2017-09-24T16:30:03.718Z,70.50
2017-09-24T16:32:31.283Z,70.40
2017-09-24T16:34:58.844Z,74.90
2017-09-24T16:37:26.390Z,78.30
2017-09-24T16:39:53.914Z,83.30
2017-09-24T16:42:22.218Z,92.00
2017-09-24T16:44:49.765Z,92.20
2017-09-24T16:47:18.083Z,97.10
2017-09-24T16:49:45.613Z,97.10
2017-09-24T16:52:13.246Z,99.90
2017-09-24T16:54:41.538Z,99.90
2017-09-24T16:57:09.825Z,99.90
2017-09-24T16:59:37.419Z,99.90
2017-09-24T17:02:04.986Z,99.90
2017-09-24T17:04:32.511Z,99.90
2017-09-24T17:07:00.053Z,99.90
2017-09-24T17:09:28.347Z,99.90
2017-09-24T17:11:55.872Z,99.90
2017-09-24T17:14:24.369Z,99.90
2017-09-24T17:16:52.661Z,99.90
2017-09-24T17:19:20.194Z,99.90
2017-09-24T17:21:48.505Z,99.90
2017-09-24T17:24:16.025Z,99.90
2017-09-24T17:26:44.046Z,99.90
2017-09-24T17:29:11.596Z,99.90
2017-09-24T17:31:39.125Z,99.90
2017-09-24T17:34:07.423Z,99.90
2017-09-24T17:36:34.966Z,99.90
2017-09-24T17:39:03.254Z,99.90
2017-09-24T17:41:30.788Z,99.90
2017-09-24T17:43:58.396Z,99.90
2017-09-24T17:46:26.063Z,99.90
2017-09-24T17:48:53.601Z,99.90
2017-09-24T17:51:21.145Z,99.90
2017-09-24T17:53:49.433Z,99.90
2017-09-24T17:56:16.949Z,99.90
2017-09-24T17:58:44.870Z,99.90
2017-09-24T18:01:12.486Z,99.90
2017-09-24T18:03:40.010Z,99.90
2017-09-24T18:06:07.553Z,99.90
2017-09-24T18:08:35.121Z,99.90
2017-09-24T18:11:02.650Z,99.90
2017-09-24T18:13:31.054Z,99.90
2017-09-24T18:15:58.621Z,99.90
2017-09-24T18:18:26.205Z,99.90
2017-09-24T18:20:53.749Z,99.90
2017-09-24T18:23:21.264Z,99.90
2017-09-24T18:25:49.553Z,99.90
2017-09-24T18:28:17.113Z,99.90
2017-09-24T18:30:44.637Z,99.90
2017-09-24T18:33:12.164Z,99.90
2017-09-24T18:35:39.711Z,99.90
2017-09-24T18:38:07.275Z,99.90
2017-09-24T18:40:34.802Z,99.90
2017-09-24T18:43:03.116Z,99.90
2017-09-24T18:45:30.651Z,99.90
2017-09-24T18:47:58.178Z,99.90
2017-09-24T18:50:25.970Z,99.90
2017-09-24T18:52:53.496Z,99.90
2017-09-24T18:55:21.031Z,99.90
2017-09-24T18:57:48.702Z,99.90
2017-09-24T19:00:17.758Z,99.90
2017-09-24T19:02:45.286Z,99.90
2017-09-24T19:05:13.613Z,99.90
2017-09-24T19:07:41.171Z,99.90
2017-09-24T19:10:08.745Z,99.90
2017-09-24T19:12:36.288Z,99.90
2017-09-24T19:15:04.257Z,99.90
2017-09-24T19:17:31.813Z,99.90
2017-09-24T19:19:59.389Z,99.90
2017-09-24T19:22:26.911Z,99.90
2017-09-24T19:24:54.899Z,99.90
2017-09-24T19:27:23.217Z,99.90
2017-09-24T19:29:50.754Z,99.90
2017-09-24T19:32:18.298Z,99.90
2017-09-24T19:34:45.845Z,99.90
2017-09-24T19:37:13.385Z,99.90
2017-09-24T19:39:41.682Z,99.90
2017-09-24T19:42:09.232Z,99.90
2017-09-24T19:44:36.759Z,99.90
2017-09-24T19:47:04.320Z,99.90
2017-09-24T19:49:32.643Z,99.90
2017-09-24T19:52:00.170Z,99.90
2017-09-24T19:54:28.494Z,99.90
2017-09-24T19:56:56.053Z,99.90
2017-09-24T19:59:23.582Z,99.90
2017-09-24T20:01:51.114Z,99.90
2017-09-24T20:04:19.637Z,99.90
2017-09-24T20:06:47.765Z,99.90
2017-09-24T20:09:15.289Z,99.90
2017-09-24T20:11:42.833Z,99.90
2017-09-24T20:14:10.354Z,99.90
2017-09-24T20:16:38.643Z,99.90
2017-09-24T20:19:06.991Z,99.90
2017-09-24T20:21:34.513Z,99.90
2017-09-24T20:24:02.038Z,99.90
2017-09-24T20:26:30.349Z,99.90
2017-09-24T20:28:57.873Z,99.90
2017-09-24T20:31:26.163Z,99.90
2017-09-24T20:33:54.466Z,99.90
2017-09-24T20:36:22.018Z,99.90
2017-09-24T20:38:49.897Z,99.90
2017-09-24T20:41:17.458Z,99.90
2017-09-24T20:43:45.003Z,99.90
2017-09-24T20:46:12.566Z,99.90
2017-09-24T20:48:40.122Z,99.90
2017-09-24T20:51:07.646Z,99.90
2017-09-24T20:53:35.938Z,99.90
2017-09-24T20:56:03.494Z,99.90
2017-09-24T20:58:31.078Z,99.90
2017-09-24T21:00:59.410Z,99.90
2017-09-24T21:03:28.041Z,99.90
2017-09-24T21:05:55.582Z,99.90
2017-09-24T21:08:23.162Z,99.90
2017-09-24T21:10:50.957Z,99.90
2017-09-24T21:13:18.791Z,99.90
2017-09-24T21:15:46.555Z,99.90
2017-09-24T21:18:14.294Z,99.90
2017-09-24T21:20:41.875Z,99.90
2017-09-24T21:23:09.397Z,99.90
2017-09-24T21:25:37.726Z,99.90
2017-09-24T21:28:05.245Z,99.90
2017-09-24T21:30:33.525Z,99.90
2017-09-24T21:33:01.848Z,99.90
2017-09-24T21:35:29.381Z,99.90
2017-09-24T21:37:56.909Z,99.90
2017-09-24T21:40:25.224Z,99.90
2017-09-24T21:42:52.744Z,99.90
2017-09-24T21:45:21.951Z,99.90
2017-09-24T21:47:50.378Z,99.90
2017-09-24T21:50:17.937Z,99.90
2017-09-24T21:52:45.481Z,99.90
2017-09-24T21:55:13.019Z,99.90
2017-09-24T21:57:40.561Z,99.90
2017-09-24T22:00:08.851Z,99.90
2017-09-24T22:02:36.414Z,99.90
2017-09-24T22:05:04.681Z,99.90
2017-09-24T22:07:32.961Z,99.90
2017-09-24T22:10:01.269Z,99.90
2017-09-24T22:12:28.854Z,99.90
2017-09-24T22:14:56.428Z,99.90
2017-09-24T22:17:23.961Z,99.90
2017-09-24T22:19:51.483Z,99.90
2017-09-24T22:22:18.993Z,99.90
2017-09-24T22:24:46.525Z,99.90
2017-09-24T22:27:14.082Z,99.90
2017-09-24T22:29:41.598Z,99.90
2017-09-24T22:32:10.024Z,99.90
2017-09-24T22:34:37.684Z,99.90
2017-09-24T22:37:05.248Z,99.90
2017-09-24T22:39:32.806Z,99.90
2017-09-24T22:42:00.321Z,99.90
2017-09-24T22:44:28.611Z,99.90
2017-09-24T22:46:56.154Z,99.90
2017-09-24T22:49:24.852Z,99.90
2017-09-24T22:51:54.062Z,99.90
2017-09-24T22:54:21.602Z,99.90
2017-09-24T22:56:49.922Z,99.90
2017-09-24T22:59:17.481Z,99.90
2017-09-24T23:01:45.045Z,99.90
2017-09-24T23:04:12.566Z,99.90
2017-09-24T23:06:40.855Z,99.90
2017-09-24T23:09:08.385Z,99.90
2017-09-24T23:11:36.717Z,99.90
2017-09-24T23:14:04.241Z,99.90
2017-09-24T23:16:32.649Z,99.90
2017-09-24T23:19:00.214Z,99.90
2017-09-24T23:21:27.766Z,99.90
2017-09-24T23:23:55.309Z,99.90
2017-09-24T23:26:22.828Z,99.90
2017-09-24T23:28:50.343Z,99.90
2017-09-24T23:31:17.883Z,99.90
2017-09-24T23:33:46.157Z,99.90
2017-09-24T23:36:14.436Z,99.90
2017-09-24T23:38:42.838Z,99.90
2017-09-24T23:41:10.357Z,99.90
2017-09-24T23:43:38.649Z,99.90
2017-09-24T23:46:07.006Z,99.90
2017-09-24T23:48:34.626Z,99.90
2017-09-24T23:51:02.149Z,99.90
2017-09-24T23:53:30.450Z,99.90
2017-09-24T23:55:57.970Z,99.90
2017-09-24T23:58:27.170Z,99.90
